Pagrindinis puslapis
METAR-TAF:

METAR-TAF

Oro uostai :

Sabadelis, Ispanija

platuma: 41-31N, ilguma: 002-06E, Aukštis: 250 m

Dabartinis oras

Ataskaita buvo paskelbta 16 minutes, ne 12:30 UTC
Vėjas 2 kt nuo kintamojo kryptimis
Temperatūra 13°C
Drėgmė 77%
Slėgis 1020 hPa
Matomumas 10 km arba daugiau
Su prošvaistėmis ne aukštis 7000 ft

METAR: LELL 251230Z VRB02KT 9999 BKN070 13/09 Q1020

Laikas: 13:46 (12:46 UTC)

Prognozė

Ataskaita buvo paskelbta 4 valandos ir 46 minutes, ne 08:00 UTC
Prognozė galioja nuo 25 metu 09 UTC su 26 metu 09 UTC
Vėjas 3 kt nuo kintamojo kryptimis
Matomumas 10 km arba daugiau
Išsisklaidę debesys ne aukštis 1500 ft
Išsisklaidę debesys ne aukštis 4000 ft

TAF: LELL 250800Z 2509/2609 VRB03KT 9999 SCT015 SCT040 TX17/2513Z TN05/2607Z

Orai ataskaitas ir orų prognozės (METAR, TAF).

turimą stotys yra geltonos ir raudonos taškus žemėlapyje.

Perkelti pele per norėdami pamatyti stoties vardą.

Tada spustelėkite, norėdami matyti oro stebėjimo ir prognozės.

Norėdami pakeisti žemėlapį: spustelėkite ant žalios mygtukų su juodo kryžiaus žemyn,; žalią mygtuką su brūkšneliu, jei norite nutolinti; arba žalių rodyklių gretimoms žemėlapius.


METAR-TAF: